createdAt,value
2018-01-04T00:00:16.579Z,0.00
2018-01-04T00:01:16.574Z,0.00
2018-01-04T00:02:16.569Z,0.00
2018-01-04T00:03:16.565Z,0.00
2018-01-04T00:04:16.557Z,0.00
2018-01-04T00:05:16.553Z,0.00
2018-01-04T00:06:16.547Z,0.00
2018-01-04T00:07:16.543Z,0.00
2018-01-04T00:08:16.536Z,0.00
2018-01-04T00:09:16.530Z,0.00
2018-01-04T00:10:16.525Z,0.00
2018-01-04T00:11:16.520Z,0.00
2018-01-04T00:12:16.516Z,0.00
2018-01-04T00:13:16.509Z,0.00
2018-01-04T00:14:16.504Z,0.00
2018-01-04T00:15:16.499Z,0.00
2018-01-04T00:16:16.493Z,0.00
2018-01-04T00:17:16.488Z,0.00
2018-01-04T00:18:16.482Z,0.00
2018-01-04T00:19:16.478Z,0.00
2018-01-04T00:20:16.471Z,0.00
2018-01-04T00:21:16.465Z,0.00
2018-01-04T00:22:16.464Z,0.00
2018-01-04T00:23:16.458Z,0.00
2018-01-04T00:24:16.450Z,0.00
2018-01-04T00:25:16.444Z,0.00
2018-01-04T00:26:16.439Z,0.00
2018-01-04T00:27:16.434Z,0.00
2018-01-04T00:28:16.428Z,0.00
2018-01-04T00:29:16.423Z,0.00
2018-01-04T00:30:16.420Z,0.00
2018-01-04T00:31:16.413Z,0.00
2018-01-04T00:32:16.406Z,0.00
2018-01-04T00:33:16.402Z,0.00
2018-01-04T00:34:16.396Z,0.00
2018-01-04T00:35:16.390Z,0.00
2018-01-04T00:36:16.387Z,0.00
2018-01-04T00:37:16.381Z,0.00
2018-01-04T00:38:16.374Z,0.00
2018-01-04T00:39:16.370Z,0.00
2018-01-04T00:40:16.364Z,0.00
2018-01-04T00:41:16.358Z,0.00
2018-01-04T00:42:16.352Z,0.00
2018-01-04T00:43:16.349Z,0.00
2018-01-04T00:44:16.344Z,0.00
2018-01-04T00:45:16.337Z,0.00
2018-01-04T00:46:16.331Z,0.00
2018-01-04T00:47:16.328Z,0.00
2018-01-04T00:48:16.321Z,0.00
2018-01-04T00:49:16.316Z,0.00
2018-01-04T00:50:16.311Z,0.00
2018-01-04T00:51:16.307Z,0.00
2018-01-04T00:52:16.300Z,0.00
2018-01-04T00:53:16.295Z,0.00
2018-01-04T00:54:16.291Z,0.00
2018-01-04T00:55:16.286Z,0.00
2018-01-04T00:56:16.280Z,0.00
2018-01-04T00:57:16.274Z,0.00
2018-01-04T00:58:16.268Z,0.00
2018-01-04T00:59:16.319Z,0.00
2018-01-04T01:00:16.259Z,0.00
2018-01-04T01:01:16.259Z,0.00
2018-01-04T01:02:16.251Z,0.00
2018-01-04T01:03:16.243Z,0.00
2018-01-04T01:04:16.239Z,0.00
2018-01-04T01:05:16.232Z,0.00
2018-01-04T01:06:16.228Z,0.00
2018-01-04T01:07:16.221Z,0.00
2018-01-04T01:08:16.215Z,0.00
2018-01-04T01:09:16.211Z,0.00
2018-01-04T01:10:16.206Z,0.00
2018-01-04T01:11:16.200Z,0.00
2018-01-04T01:12:16.194Z,0.00
2018-01-04T01:13:16.189Z,0.00
2018-01-04T01:14:16.184Z,0.00
2018-01-04T01:15:16.179Z,0.00
2018-01-04T01:16:16.173Z,0.00
2018-01-04T01:17:16.168Z,0.00
2018-01-04T01:18:16.163Z,0.00
2018-01-04T01:19:16.158Z,0.00
2018-01-04T01:20:16.152Z,0.00
2018-01-04T01:21:16.146Z,0.00
2018-01-04T01:22:16.141Z,0.00
2018-01-04T01:23:16.137Z,0.00
2018-01-04T01:24:16.130Z,0.00
2018-01-04T01:25:16.127Z,0.00
2018-01-04T01:26:16.121Z,0.00
2018-01-04T01:27:16.116Z,0.00
2018-01-04T01:28:16.110Z,0.00
2018-01-04T01:29:16.105Z,0.00
2018-01-04T01:30:16.100Z,0.00
2018-01-04T01:31:16.095Z,0.00
2018-01-04T01:32:16.089Z,0.00
2018-01-04T01:33:16.084Z,0.00
2018-01-04T01:34:16.081Z,0.00
2018-01-04T01:35:16.073Z,0.00
2018-01-04T01:36:16.068Z,0.00
2018-01-04T01:37:16.062Z,0.00
2018-01-04T01:38:16.058Z,0.00
2018-01-04T01:39:16.058Z,0.00
2018-01-04T01:40:16.047Z,0.00
2018-01-04T01:41:16.042Z,0.00
2018-01-04T01:42:16.037Z,0.00
2018-01-04T01:43:16.032Z,0.00
2018-01-04T01:44:16.025Z,0.00
2018-01-04T01:45:16.038Z,0.00
2018-01-04T01:46:16.018Z,0.00
2018-01-04T01:47:16.011Z,0.00
2018-01-04T01:48:16.006Z,0.00
2018-01-04T01:49:16.001Z,0.00
2018-01-04T01:50:15.996Z,0.00
2018-01-04T01:51:15.994Z,0.00
2018-01-04T01:52:15.985Z,0.00
2018-01-04T01:53:15.980Z,0.00
2018-01-04T01:54:15.975Z,0.00
2018-01-04T01:55:15.975Z,0.00
2018-01-04T01:56:15.965Z,0.00
2018-01-04T01:57:15.958Z,0.00
2018-01-04T01:58:15.954Z,0.00
2018-01-04T01:59:15.949Z,0.00
2018-01-04T02:00:15.946Z,0.00
2018-01-04T02:01:15.939Z,0.00
2018-01-04T02:02:15.934Z,0.00
2018-01-04T02:03:15.928Z,0.00
2018-01-04T02:04:15.923Z,0.00
2018-01-04T02:05:15.918Z,0.00
2018-01-04T02:06:15.913Z,0.00
2018-01-04T02:07:15.907Z,0.00
2018-01-04T02:08:15.901Z,0.00
2018-01-04T02:09:15.897Z,0.00
2018-01-04T02:10:15.892Z,0.00
2018-01-04T02:11:15.887Z,0.00
2018-01-04T02:12:15.882Z,0.00
2018-01-04T02:13:15.876Z,0.00
2018-01-04T02:14:15.872Z,0.00
2018-01-04T02:15:15.866Z,0.00
2018-01-04T02:16:15.860Z,0.00
2018-01-04T02:17:15.860Z,0.00
2018-01-04T02:18:15.850Z,0.00
2018-01-04T02:19:15.844Z,0.00
2018-01-04T02:20:15.840Z,0.00
2018-01-04T02:21:15.834Z,0.00
2018-01-04T02:22:15.830Z,0.00
2018-01-04T02:23:15.827Z,0.00
2018-01-04T02:24:15.819Z,0.00
2018-01-04T02:25:15.814Z,0.00
2018-01-04T02:26:15.809Z,0.00
2018-01-04T02:27:15.804Z,0.00
2018-01-04T02:28:15.798Z,0.00
2018-01-04T02:29:15.794Z,0.00
2018-01-04T02:30:15.790Z,0.00
2018-01-04T02:31:15.788Z,0.00
2018-01-04T02:32:15.779Z,0.00
2018-01-04T02:33:15.774Z,0.00
2018-01-04T02:34:15.769Z,0.00
2018-01-04T02:35:15.764Z,0.00
2018-01-04T02:36:15.759Z,0.00
2018-01-04T02:37:15.753Z,0.00
2018-01-04T02:38:15.748Z,0.00
2018-01-04T02:39:15.744Z,0.00
2018-01-04T02:40:15.738Z,0.00
2018-01-04T02:41:15.730Z,0.00
2018-01-04T02:42:15.726Z,0.00
2018-01-04T02:43:15.722Z,0.00
2018-01-04T02:44:15.715Z,0.00
2018-01-04T02:45:15.710Z,0.00
2018-01-04T02:46:15.705Z,0.00
2018-01-04T02:47:15.700Z,0.00
2018-01-04T02:48:15.695Z,0.00
2018-01-04T02:49:15.690Z,0.00
2018-01-04T02:50:15.685Z,0.00
2018-01-04T02:51:15.679Z,0.00
2018-01-04T02:52:15.674Z,0.00
2018-01-04T02:53:15.668Z,0.00
2018-01-04T02:54:15.664Z,0.00
2018-01-04T02:55:15.659Z,0.00
2018-01-04T02:56:15.653Z,0.00
2018-01-04T02:57:15.649Z,0.00
2018-01-04T02:58:15.643Z,0.00
2018-01-04T02:59:15.638Z,0.00
2018-01-04T03:00:15.632Z,0.00
2018-01-04T03:01:15.639Z,0.00
2018-01-04T03:02:15.622Z,0.00
2018-01-04T03:03:15.618Z,0.00
2018-01-04T03:04:15.610Z,0.00
2018-01-04T03:05:15.606Z,0.00
2018-01-04T03:06:15.601Z,0.00
2018-01-04T03:07:15.596Z,0.00
2018-01-04T03:08:15.590Z,0.00
2018-01-04T03:09:15.587Z,0.00
2018-01-04T03:10:15.580Z,0.00
2018-01-04T03:11:15.575Z,0.00
2018-01-04T03:12:15.568Z,0.00
2018-01-04T03:13:15.563Z,0.00
2018-01-04T03:14:15.604Z,0.00
2018-01-04T03:15:15.554Z,0.00
2018-01-04T03:16:15.548Z,0.00
2018-01-04T03:17:15.544Z,0.00
2018-01-04T03:18:15.537Z,0.00
2018-01-04T03:19:15.532Z,0.00
2018-01-04T03:20:15.527Z,0.00
2018-01-04T03:21:15.522Z,0.00
2018-01-04T03:22:15.517Z,0.00
2018-01-04T03:23:15.511Z,0.00
2018-01-04T03:24:15.506Z,0.00
2018-01-04T03:25:15.500Z,0.00
2018-01-04T03:26:15.496Z,0.00
2018-01-04T03:27:15.490Z,0.00
2018-01-04T03:28:15.485Z,0.00
2018-01-04T03:29:15.479Z,0.00
2018-01-04T03:30:15.477Z,0.00
2018-01-04T03:31:15.470Z,0.00
2018-01-04T03:32:15.464Z,0.00
2018-01-04T03:33:15.458Z,0.00
2018-01-04T03:34:15.454Z,0.00
2018-01-04T03:35:15.448Z,0.00
2018-01-04T03:36:15.442Z,0.00
2018-01-04T03:37:15.436Z,0.00
2018-01-04T03:38:15.433Z,0.00
2018-01-04T03:39:15.430Z,0.00
2018-01-04T03:40:15.422Z,0.00
2018-01-04T03:41:15.423Z,0.00
2018-01-04T03:42:15.412Z,0.00
2018-01-04T03:43:15.407Z,0.00
2018-01-04T03:44:15.401Z,0.00
2018-01-04T03:45:15.397Z,0.00
2018-01-04T03:46:15.390Z,0.00
2018-01-04T03:47:15.386Z,0.00
2018-01-04T03:48:15.382Z,0.00
2018-01-04T03:49:15.375Z,0.00
2018-01-04T03:50:15.370Z,0.00
2018-01-04T03:51:15.366Z,0.00
2018-01-04T03:52:15.361Z,0.00
2018-01-04T03:53:15.354Z,0.00
2018-01-04T03:54:15.350Z,0.00
2018-01-04T03:55:15.345Z,0.00
2018-01-04T03:56:15.340Z,0.00
2018-01-04T03:57:15.335Z,0.00
2018-01-04T03:58:15.329Z,0.00
2018-01-04T03:59:15.323Z,0.00
2018-01-04T04:00:15.317Z,0.00
2018-01-04T04:01:15.313Z,0.00
2018-01-04T04:02:15.308Z,0.00
2018-01-04T04:03:15.303Z,0.00
2018-01-04T04:04:15.297Z,0.00
2018-01-04T04:05:15.293Z,0.00
2018-01-04T04:06:15.289Z,0.00
2018-01-04T04:07:15.283Z,0.00
2018-01-04T04:08:15.277Z,0.00
2018-01-04T04:09:15.272Z,0.00
2018-01-04T04:10:15.267Z,0.00
2018-01-04T04:11:15.262Z,0.00
2018-01-04T04:12:15.258Z,0.00
2018-01-04T04:13:15.252Z,0.00
2018-01-04T04:14:15.245Z,0.00
2018-01-04T04:15:15.242Z,0.00
2018-01-04T04:16:15.236Z,0.00
2018-01-04T04:17:15.231Z,0.00
2018-01-04T04:18:15.226Z,0.00
2018-01-04T04:19:15.221Z,0.00
2018-01-04T04:20:15.214Z,0.00
2018-01-04T04:21:15.210Z,0.00
2018-01-04T04:22:15.206Z,0.00
2018-01-04T04:23:15.201Z,0.00
2018-01-04T04:24:15.196Z,0.00
2018-01-04T04:25:15.190Z,0.00
2018-01-04T04:26:15.185Z,0.00
2018-01-04T04:27:15.181Z,0.00
2018-01-04T04:28:15.197Z,0.00
2018-01-04T04:29:15.169Z,0.00
2018-01-04T04:30:15.165Z,0.00
2018-01-04T04:31:15.159Z,0.00
2018-01-04T04:32:15.158Z,0.00
2018-01-04T04:33:15.149Z,0.00
2018-01-04T04:34:15.146Z,0.00
2018-01-04T04:35:15.140Z,0.00
2018-01-04T04:36:15.133Z,0.00
2018-01-04T04:37:15.129Z,0.00
2018-01-04T04:38:15.127Z,0.00
2018-01-04T04:39:15.119Z,0.00
2018-01-04T04:40:15.113Z,0.00
2018-01-04T04:41:15.110Z,0.00
2018-01-04T04:42:15.103Z,0.00
2018-01-04T04:43:15.101Z,0.00
2018-01-04T04:44:15.093Z,0.00
2018-01-04T04:45:15.088Z,0.00
2018-01-04T04:46:15.083Z,0.00
2018-01-04T04:47:15.078Z,0.00
2018-01-04T04:48:15.072Z,0.00
2018-01-04T04:49:15.067Z,0.00
2018-01-04T04:50:15.062Z,0.00
2018-01-04T04:51:15.057Z,0.00
2018-01-04T04:52:15.051Z,0.00
2018-01-04T04:53:15.047Z,0.00
2018-01-04T04:54:15.042Z,0.00
2018-01-04T04:55:15.037Z,0.00
2018-01-04T04:56:15.032Z,0.00
2018-01-04T04:57:15.026Z,0.00
2018-01-04T04:58:15.021Z,0.00
2018-01-04T04:59:15.017Z,0.00
2018-01-04T05:00:15.011Z,0.00
2018-01-04T05:01:15.006Z,0.00
2018-01-04T05:02:15.003Z,0.00
2018-01-04T05:03:14.996Z,0.00
2018-01-04T05:04:14.990Z,0.00
2018-01-04T05:05:14.986Z,0.00
2018-01-04T05:06:14.979Z,0.00
2018-01-04T05:07:14.976Z,0.00
2018-01-04T05:08:14.969Z,0.00
2018-01-04T05:09:14.964Z,0.00
2018-01-04T05:10:14.960Z,0.00
2018-01-04T05:11:14.955Z,0.00
2018-01-04T05:12:14.949Z,0.00
2018-01-04T05:13:14.943Z,0.00
2018-01-04T05:14:14.938Z,0.00
2018-01-04T05:15:14.933Z,0.00
2018-01-04T05:16:14.928Z,0.00
2018-01-04T05:17:14.924Z,0.00
2018-01-04T05:18:14.919Z,0.00
2018-01-04T05:19:14.915Z,0.00
2018-01-04T05:20:14.911Z,0.00
2018-01-04T05:21:14.903Z,0.00
2018-01-04T05:22:14.898Z,0.00
2018-01-04T05:23:14.893Z,0.00
2018-01-04T05:24:14.887Z,0.00
2018-01-04T05:25:14.883Z,0.00
2018-01-04T05:26:14.877Z,0.00
2018-01-04T05:27:14.873Z,0.00
2018-01-04T05:28:14.867Z,0.00
2018-01-04T05:29:14.863Z,0.00
2018-01-04T05:30:14.858Z,0.00
2018-01-04T05:31:14.855Z,0.00
2018-01-04T05:32:14.846Z,0.00
2018-01-04T05:33:14.841Z,0.00
2018-01-04T05:34:14.836Z,0.00
2018-01-04T05:35:14.832Z,0.00
2018-01-04T05:36:14.827Z,0.00
2018-01-04T05:37:14.821Z,0.00
2018-01-04T05:38:14.822Z,0.00
2018-01-04T05:39:14.812Z,0.00
2018-01-04T05:40:14.806Z,0.00
2018-01-04T05:41:14.801Z,0.00
2018-01-04T05:42:14.799Z,0.00
2018-01-04T05:43:14.791Z,0.00
2018-01-04T05:44:14.784Z,0.00
2018-01-04T05:45:14.780Z,0.00
2018-01-04T05:46:14.775Z,0.00
2018-01-04T05:47:14.770Z,0.00
2018-01-04T05:48:14.765Z,0.00
2018-01-04T05:49:14.760Z,0.00
2018-01-04T05:50:14.757Z,0.00
2018-01-04T05:51:14.750Z,0.00
2018-01-04T05:52:14.745Z,0.00
2018-01-04T05:53:14.741Z,0.00
2018-01-04T05:54:14.734Z,0.00
2018-01-04T05:55:14.730Z,0.00
2018-01-04T05:56:14.724Z,0.00
2018-01-04T05:57:14.718Z,0.00
2018-01-04T05:58:14.714Z,0.00
2018-01-04T05:59:14.709Z,0.00
2018-01-04T06:00:14.703Z,0.00
2018-01-04T06:01:14.698Z,0.00
2018-01-04T06:02:14.694Z,0.00
2018-01-04T06:03:14.688Z,0.00
2018-01-04T06:04:14.682Z,0.00
2018-01-04T06:05:14.677Z,0.00
2018-01-04T06:06:14.676Z,0.00
2018-01-04T06:07:14.667Z,0.00
2018-01-04T06:08:14.662Z,0.00
2018-01-04T06:09:14.656Z,0.00
2018-01-04T06:10:14.652Z,0.00
2018-01-04T06:11:14.647Z,0.00
2018-01-04T06:12:14.642Z,0.00
2018-01-04T06:13:14.637Z,0.00
2018-01-04T06:14:14.631Z,0.00
2018-01-04T06:15:14.626Z,0.00
2018-01-04T06:16:14.626Z,0.00
2018-01-04T06:17:14.616Z,0.00
2018-01-04T06:18:14.610Z,0.00
2018-01-04T06:19:14.605Z,0.00
2018-01-04T06:20:14.598Z,0.00
2018-01-04T06:21:14.594Z,0.00
2018-01-04T06:22:14.589Z,0.00
2018-01-04T06:23:14.588Z,0.00
2018-01-04T06:24:14.578Z,0.00
2018-01-04T06:25:14.576Z,0.00
2018-01-04T06:26:14.571Z,0.00
2018-01-04T06:27:14.572Z,0.00
2018-01-04T06:28:14.557Z,0.00
2018-01-04T06:29:14.552Z,0.00
2018-01-04T06:30:14.546Z,0.00
2018-01-04T06:31:14.541Z,0.00
2018-01-04T06:32:14.536Z,0.00
2018-01-04T06:33:14.530Z,0.00
2018-01-04T06:34:14.526Z,0.00
2018-01-04T06:35:14.522Z,0.00
2018-01-04T06:36:14.515Z,0.00
2018-01-04T06:37:14.512Z,0.00
2018-01-04T06:38:14.505Z,0.00
2018-01-04T06:39:14.499Z,0.00
2018-01-04T06:40:14.493Z,0.00
2018-01-04T06:41:14.551Z,0.00
2018-01-04T06:42:14.483Z,0.00
2018-01-04T06:43:14.478Z,0.00
2018-01-04T06:44:14.471Z,0.00
2018-01-04T06:45:14.466Z,0.00
2018-01-04T06:46:14.462Z,0.00
2018-01-04T06:47:14.457Z,0.00
2018-01-04T06:48:14.450Z,0.00
2018-01-04T06:49:14.446Z,0.00
2018-01-04T06:50:14.441Z,0.00
2018-01-04T06:51:14.436Z,0.00
2018-01-04T06:52:14.429Z,0.00
2018-01-04T06:53:14.425Z,0.00
2018-01-04T06:54:14.418Z,0.00
2018-01-04T06:55:14.414Z,0.00
2018-01-04T06:56:14.409Z,0.00
2018-01-04T06:57:14.403Z,0.00
2018-01-04T06:58:14.399Z,0.00
2018-01-04T06:59:14.394Z,0.00
2018-01-04T07:00:14.387Z,0.00
2018-01-04T07:01:14.384Z,0.00
2018-01-04T07:02:14.378Z,0.00
2018-01-04T07:03:14.372Z,0.00
2018-01-04T07:04:14.366Z,0.00
2018-01-04T07:05:14.362Z,0.00
2018-01-04T07:06:14.356Z,0.00
2018-01-04T07:07:14.352Z,0.00
2018-01-04T07:08:14.344Z,0.00
2018-01-04T07:09:14.340Z,0.00
2018-01-04T07:10:14.335Z,0.00
2018-01-04T07:11:14.330Z,0.00
2018-01-04T07:12:14.325Z,0.00
2018-01-04T07:13:14.326Z,0.00
2018-01-04T07:14:14.318Z,0.00
2018-01-04T07:15:14.309Z,0.00
2018-01-04T07:16:14.304Z,0.00
2018-01-04T07:17:14.299Z,0.00
2018-01-04T07:18:14.294Z,0.00
2018-01-04T07:19:14.290Z,0.00
2018-01-04T07:20:14.282Z,0.00
2018-01-04T07:21:14.277Z,0.00
2018-01-04T07:22:14.276Z,0.00
2018-01-04T07:23:14.268Z,0.00
2018-01-04T07:24:14.263Z,0.00
2018-01-04T07:25:14.257Z,0.00
2018-01-04T07:26:14.252Z,0.00
2018-01-04T07:27:14.247Z,0.00
2018-01-04T07:28:14.240Z,0.00
2018-01-04T07:29:14.236Z,0.00
2018-01-04T07:30:14.231Z,0.00
2018-01-04T07:31:14.226Z,0.00
2018-01-04T07:32:14.220Z,0.00
2018-01-04T07:33:14.215Z,0.00
2018-01-04T07:34:14.211Z,0.00
2018-01-04T07:35:14.205Z,0.00
2018-01-04T07:36:14.200Z,0.00
2018-01-04T07:37:14.194Z,0.00
2018-01-04T07:38:14.189Z,0.00
2018-01-04T07:39:14.184Z,0.00
2018-01-04T07:40:14.179Z,0.00
2018-01-04T07:41:14.173Z,0.00
2018-01-04T07:42:14.168Z,0.00
2018-01-04T07:43:14.164Z,0.00
2018-01-04T07:44:14.157Z,0.00
2018-01-04T07:45:14.153Z,0.00
2018-01-04T07:46:14.148Z,0.00
2018-01-04T07:47:14.143Z,0.00
2018-01-04T07:48:14.137Z,0.00
2018-01-04T07:49:14.132Z,0.00
2018-01-04T07:50:14.127Z,0.00
2018-01-04T07:51:14.122Z,0.00
2018-01-04T07:52:14.117Z,0.00
2018-01-04T07:53:14.111Z,0.00
2018-01-04T07:54:14.111Z,0.00
2018-01-04T07:55:14.101Z,5.63
2018-01-04T07:56:14.096Z,5.63
2018-01-04T07:57:14.091Z,5.63
2018-01-04T07:58:14.086Z,5.63
2018-01-04T07:59:14.081Z,5.63
2018-01-04T08:00:14.075Z,5.63
2018-01-04T08:01:14.074Z,5.63
2018-01-04T08:02:14.065Z,5.63
2018-01-04T08:03:14.061Z,5.63
2018-01-04T08:04:14.055Z,5.63
2018-01-04T08:05:14.050Z,5.63
2018-01-04T08:06:14.045Z,5.63
2018-01-04T08:07:14.040Z,5.63
2018-01-04T08:08:14.034Z,5.63
2018-01-04T08:09:14.029Z,5.63
2018-01-04T08:10:14.024Z,5.63
2018-01-04T08:11:14.019Z,5.63
2018-01-04T08:12:14.014Z,5.63
2018-01-04T08:13:14.009Z,5.63
2018-01-04T08:14:14.003Z,5.63
2018-01-04T08:15:13.999Z,5.63
2018-01-04T08:16:13.993Z,11.25
2018-01-04T08:17:13.989Z,11.25
2018-01-04T08:18:13.983Z,11.25
2018-01-04T08:19:13.980Z,11.25
2018-01-04T08:20:13.973Z,11.25
2018-01-04T08:21:13.968Z,11.25
2018-01-04T08:22:13.963Z,11.25
2018-01-04T08:23:13.961Z,11.25
2018-01-04T08:24:13.953Z,11.25
2018-01-04T08:25:13.948Z,11.25
2018-01-04T08:26:13.944Z,11.25
2018-01-04T08:27:13.942Z,11.25
2018-01-04T08:28:13.932Z,11.25
2018-01-04T08:29:13.927Z,16.88
2018-01-04T08:30:13.924Z,22.50
2018-01-04T08:31:13.918Z,22.50
2018-01-04T08:32:13.913Z,22.50
2018-01-04T08:33:13.912Z,22.50
2018-01-04T08:34:13.904Z,22.50
2018-01-04T08:35:13.899Z,22.50
2018-01-04T08:36:13.896Z,16.88
2018-01-04T08:37:13.889Z,22.50
2018-01-04T08:38:13.884Z,28.13
2018-01-04T08:39:13.879Z,28.13
2018-01-04T08:40:13.873Z,33.75
2018-01-04T08:41:13.871Z,33.75
2018-01-04T08:42:13.862Z,33.75
2018-01-04T08:43:13.859Z,33.75
2018-01-04T08:44:13.853Z,28.13
2018-01-04T08:45:13.850Z,22.50
2018-01-04T08:46:13.845Z,16.88
2018-01-04T08:47:13.840Z,22.50
2018-01-04T08:48:13.834Z,16.88
2018-01-04T08:49:13.829Z,22.50
2018-01-04T08:50:13.825Z,22.50
2018-01-04T08:51:13.819Z,28.13
2018-01-04T08:52:13.815Z,28.13
2018-01-04T08:53:13.810Z,28.13
2018-01-04T08:54:13.804Z,22.50
2018-01-04T08:55:13.800Z,22.50
2018-01-04T08:56:13.795Z,22.50
2018-01-04T08:57:13.790Z,28.13
2018-01-04T08:58:13.785Z,28.13
2018-01-04T08:59:13.783Z,28.13
2018-01-04T09:00:13.774Z,33.75
2018-01-04T09:01:13.769Z,33.75
2018-01-04T09:02:13.766Z,39.38
2018-01-04T09:03:13.773Z,39.38
2018-01-04T09:04:13.756Z,45.00
2018-01-04T09:05:13.750Z,45.00
2018-01-04T09:06:13.747Z,50.63
2018-01-04T09:07:13.742Z,45.00
2018-01-04T09:08:13.736Z,45.00
2018-01-04T09:09:13.732Z,50.63
2018-01-04T09:10:13.727Z,45.00
2018-01-04T09:11:13.722Z,50.63
2018-01-04T09:12:13.717Z,50.63
2018-01-04T09:13:13.712Z,56.25
2018-01-04T09:14:13.708Z,56.25
2018-01-04T09:15:13.703Z,56.25
2018-01-04T09:16:13.697Z,45.00
2018-01-04T09:17:13.694Z,50.63
2018-01-04T09:18:13.689Z,56.25
2018-01-04T09:19:13.684Z,50.63
2018-01-04T09:20:13.678Z,45.00
2018-01-04T09:21:13.674Z,45.00
2018-01-04T09:22:13.670Z,45.00
2018-01-04T09:23:13.665Z,50.63
2018-01-04T09:24:13.660Z,45.00
2018-01-04T09:25:13.655Z,39.38
2018-01-04T09:26:13.651Z,39.38
2018-01-04T09:27:13.646Z,39.38
2018-01-04T09:28:13.640Z,45.00
2018-01-04T09:29:13.635Z,33.75
2018-01-04T09:30:13.633Z,39.38
2018-01-04T09:31:13.632Z,39.38
2018-01-04T09:32:13.622Z,39.38
2018-01-04T09:33:13.617Z,45.00
2018-01-04T09:34:13.613Z,56.25
2018-01-04T09:35:13.611Z,56.25
2018-01-04T09:36:13.603Z,50.63
2018-01-04T09:37:13.598Z,61.88
2018-01-04T09:38:13.594Z,56.25
2018-01-04T09:39:13.590Z,56.25
2018-01-04T09:40:13.584Z,50.63
2018-01-04T09:41:13.579Z,61.88
2018-01-04T09:42:13.576Z,56.25
2018-01-04T09:43:13.570Z,56.25
2018-01-04T09:44:13.565Z,61.88
2018-01-04T09:45:13.560Z,73.13
2018-01-04T09:46:13.556Z,61.88
2018-01-04T09:47:13.553Z,73.13
2018-01-04T09:48:13.547Z,73.13
2018-01-04T09:49:13.543Z,73.13
2018-01-04T09:50:13.538Z,78.75
2018-01-04T09:51:13.535Z,78.75
2018-01-04T09:52:13.528Z,90.00
2018-01-04T09:53:13.525Z,78.75
2018-01-04T09:54:13.520Z,73.13
2018-01-04T09:55:13.514Z,67.50
2018-01-04T09:56:13.510Z,73.13
2018-01-04T09:57:13.512Z,73.13
2018-01-04T09:58:13.502Z,73.13
2018-01-04T09:59:13.497Z,73.13
2018-01-04T10:00:13.492Z,73.13
2018-01-04T10:01:13.487Z,67.50
2018-01-04T10:02:13.483Z,67.50
2018-01-04T10:03:13.478Z,73.13
2018-01-04T10:04:13.501Z,73.13
2018-01-04T10:05:13.470Z,73.13
2018-01-04T10:06:13.465Z,67.50
2018-01-04T10:07:13.461Z,73.13
2018-01-04T10:08:13.459Z,73.13
2018-01-04T10:09:13.450Z,73.13
2018-01-04T10:10:13.454Z,73.13
2018-01-04T10:11:13.442Z,73.13
2018-01-04T10:12:13.437Z,73.13
2018-01-04T10:13:13.434Z,73.13
2018-01-04T10:14:13.429Z,73.13
2018-01-04T10:15:13.425Z,73.13
2018-01-04T10:16:13.420Z,90.00
2018-01-04T10:17:13.417Z,84.38
2018-01-04T10:18:13.411Z,73.13
2018-01-04T10:19:13.408Z,78.75
2018-01-04T10:20:13.401Z,78.75
2018-01-04T10:21:13.397Z,73.13
2018-01-04T10:22:13.392Z,73.13
2018-01-04T10:23:13.393Z,78.75
2018-01-04T10:24:13.384Z,73.13
2018-01-04T10:25:13.379Z,73.13
2018-01-04T10:26:13.376Z,84.38
2018-01-04T10:27:13.373Z,84.38
2018-01-04T10:28:13.369Z,95.63
2018-01-04T10:29:13.362Z,90.00
2018-01-04T10:30:13.357Z,90.00
2018-01-04T10:31:13.353Z,106.88
2018-01-04T10:32:13.348Z,112.50
2018-01-04T10:33:13.342Z,112.50
2018-01-04T10:34:13.340Z,118.13
2018-01-04T10:35:13.335Z,118.13
2018-01-04T10:36:13.331Z,118.13
2018-01-04T10:37:13.328Z,118.13
2018-01-04T10:38:13.325Z,90.00
2018-01-04T10:39:13.318Z,95.63
2018-01-04T10:40:13.312Z,90.00
2018-01-04T10:41:13.309Z,67.50
2018-01-04T10:42:13.305Z,90.00
2018-01-04T10:43:13.300Z,90.00
2018-01-04T10:44:13.296Z,90.00
2018-01-04T10:45:13.292Z,84.38
2018-01-04T10:46:13.288Z,67.50
2018-01-04T10:47:13.284Z,61.88
2018-01-04T10:48:13.280Z,78.75
2018-01-04T10:49:13.275Z,106.88
2018-01-04T10:50:13.270Z,101.25
2018-01-04T10:51:13.267Z,106.88
2018-01-04T10:52:13.261Z,118.13
2018-01-04T10:53:13.258Z,135.00
2018-01-04T10:54:13.254Z,151.88
2018-01-04T10:55:13.250Z,174.38
2018-01-04T10:56:13.245Z,157.50
2018-01-04T10:57:13.244Z,146.25
2018-01-04T10:58:13.236Z,129.38
2018-01-04T10:59:13.232Z,140.63
2018-01-04T11:00:13.230Z,151.88
2018-01-04T11:01:13.224Z,168.75
2018-01-04T11:02:13.222Z,180.00
2018-01-04T11:03:13.216Z,146.25
2018-01-04T11:04:13.211Z,174.38
2018-01-04T11:05:13.207Z,157.50
2018-01-04T11:06:13.203Z,146.25
2018-01-04T11:07:13.199Z,151.88
2018-01-04T11:08:13.194Z,140.63
2018-01-04T11:09:13.192Z,135.00
2018-01-04T11:10:13.188Z,146.25
2018-01-04T11:11:13.186Z,135.00
2018-01-04T11:12:13.183Z,129.38
2018-01-04T11:13:13.181Z,123.75
2018-01-04T11:14:13.171Z,135.00
2018-01-04T11:15:13.167Z,135.00
2018-01-04T11:16:13.163Z,118.13
2018-01-04T11:17:13.159Z,112.50
2018-01-04T11:18:13.155Z,101.25
2018-01-04T11:19:13.150Z,90.00
2018-01-04T11:20:13.146Z,101.25
2018-01-04T11:21:13.144Z,106.88
2018-01-04T11:22:13.139Z,106.88
2018-01-04T11:23:13.136Z,106.88
2018-01-04T11:24:13.133Z,106.88
2018-01-04T11:25:13.126Z,101.25
2018-01-04T11:26:13.123Z,101.25
2018-01-04T11:27:13.120Z,101.25
2018-01-04T11:28:13.115Z,101.25
2018-01-04T11:29:13.110Z,90.00
2018-01-04T11:30:13.107Z,84.38
2018-01-04T11:31:13.103Z,90.00
2018-01-04T11:32:13.100Z,95.63
2018-01-04T11:33:13.095Z,112.50
2018-01-04T11:34:13.091Z,123.75
2018-01-04T11:35:13.088Z,135.00
2018-01-04T11:36:13.082Z,140.63
2018-01-04T11:37:13.079Z,146.25
2018-01-04T11:38:13.075Z,140.63
2018-01-04T11:39:13.072Z,146.25
2018-01-04T11:40:13.066Z,146.25
2018-01-04T11:41:13.063Z,129.38
2018-01-04T11:42:13.059Z,123.75
2018-01-04T11:43:13.055Z,118.13
2018-01-04T11:44:13.101Z,106.88
2018-01-04T11:45:13.046Z,95.63
2018-01-04T11:46:13.043Z,95.63
2018-01-04T11:47:13.040Z,106.88
2018-01-04T11:48:13.034Z,106.88
2018-01-04T11:49:13.029Z,112.50
2018-01-04T11:50:13.027Z,112.50
2018-01-04T11:51:13.023Z,112.50
2018-01-04T11:52:13.019Z,112.50
2018-01-04T11:53:13.015Z,123.75
2018-01-04T11:54:13.011Z,129.38
2018-01-04T11:55:13.007Z,135.00
2018-01-04T11:56:13.003Z,123.75
2018-01-04T11:57:12.999Z,123.75
2018-01-04T11:58:12.996Z,118.13
2018-01-04T11:59:12.991Z,112.50
2018-01-04T12:00:12.987Z,112.50
2018-01-04T12:01:12.983Z,118.13
2018-01-04T12:02:12.980Z,112.50
2018-01-04T12:03:12.975Z,118.13
2018-01-04T12:04:12.972Z,123.75
2018-01-04T12:05:12.969Z,118.13
2018-01-04T12:06:12.964Z,101.25
2018-01-04T12:07:12.960Z,95.63
2018-01-04T12:08:12.956Z,95.63
2018-01-04T12:09:12.952Z,95.63
2018-01-04T12:10:12.948Z,101.25
2018-01-04T12:11:12.945Z,101.25
2018-01-04T12:12:12.940Z,101.25
2018-01-04T12:13:12.950Z,106.88
2018-01-04T12:14:12.931Z,106.88
2018-01-04T12:15:12.928Z,101.25
2018-01-04T12:16:12.924Z,101.25
2018-01-04T12:17:12.926Z,95.63
2018-01-04T12:18:12.921Z,95.63
2018-01-04T12:19:12.913Z,95.63
2018-01-04T12:20:12.910Z,95.63
2018-01-04T12:21:12.905Z,95.63
2018-01-04T12:22:12.902Z,95.63
2018-01-04T12:23:12.898Z,95.63
2018-01-04T12:24:12.894Z,95.63
2018-01-04T12:25:12.892Z,95.63
2018-01-04T12:26:12.887Z,90.00
2018-01-04T12:27:12.882Z,84.38
2018-01-04T12:28:12.879Z,90.00
2018-01-04T12:29:12.875Z,90.00
2018-01-04T12:30:12.872Z,90.00
2018-01-04T12:31:12.868Z,90.00
2018-01-04T12:32:12.863Z,90.00
2018-01-04T12:33:12.860Z,101.25
2018-01-04T12:34:12.860Z,106.88
2018-01-04T12:35:12.853Z,106.88
2018-01-04T12:36:12.848Z,112.50
2018-01-04T12:37:12.845Z,112.50
2018-01-04T12:38:12.841Z,106.88
2018-01-04T12:39:12.837Z,106.88
2018-01-04T12:40:12.833Z,106.88
2018-01-04T12:41:12.829Z,112.50
2018-01-04T12:42:12.826Z,112.50
2018-01-04T12:43:12.823Z,112.50
2018-01-04T12:44:12.819Z,112.50
2018-01-04T12:45:12.815Z,106.88
2018-01-04T12:46:12.812Z,101.25
2018-01-04T12:47:12.809Z,95.63
2018-01-04T12:48:12.804Z,90.00
2018-01-04T12:49:12.800Z,84.38
2018-01-04T12:50:12.797Z,84.38
2018-01-04T12:51:12.794Z,84.38
2018-01-04T12:52:12.789Z,90.00
2018-01-04T12:53:12.786Z,90.00
2018-01-04T12:54:12.782Z,90.00
2018-01-04T12:55:12.785Z,84.38
2018-01-04T12:56:12.775Z,84.38
2018-01-04T12:57:12.772Z,78.75
2018-01-04T12:58:12.769Z,78.75
2018-01-04T12:59:12.765Z,78.75
2018-01-04T13:00:12.761Z,78.75
2018-01-04T13:01:12.756Z,78.75
2018-01-04T13:02:12.754Z,78.75
2018-01-04T13:03:12.751Z,78.75
2018-01-04T13:04:12.747Z,78.75
2018-01-04T13:05:12.744Z,78.75